TimeEDT,TemperatureF,Dew PointF,Humidity,Sea Level PressureIn,VisibilityMPH,Wind Direction,Wind SpeedMPH,Gust SpeedMPH,PrecipitationIn,Events,Conditions,WindDirDegrees,DateUTC
12:51 AM,64.9,54.0,68,29.89,10.0,South,9.2,-,N/A,,Clear,170,2012-09-22 04:51:00
1:51 AM,64.0,54.0,70,29.89,10.0,South,5.8,-,N/A,,Mostly Cloudy,190,2012-09-22 05:51:00
2:51 AM,64.0,54.0,70,29.88,10.0,SSW,5.8,-,N/A,,Mostly Cloudy,200,2012-09-22 06:51:00
3:51 AM,64.0,55.0,73,29.88,10.0,SW,8.1,-,N/A,,Mostly Cloudy,220,2012-09-22 07:51:00
4:51 AM,64.0,54.0,70,29.88,10.0,SSW,11.5,19.6,N/A,,Partly Cloudy,210,2012-09-22 08:51:00
5:51 AM,63.0,54.0,72,29.89,10.0,SSW,12.7,-,N/A,,Partly Cloudy,210,2012-09-22 09:51:00
6:51 AM,62.1,54.0,75,29.90,10.0,SSW,9.2,-,N/A,,Mostly Cloudy,210,2012-09-22 10:51:00
7:51 AM,62.1,54.0,75,29.91,10.0,SSW,6.9,-,N/A,,Mostly Cloudy,210,2012-09-22 11:51:00
8:51 AM,64.0,55.0,73,29.90,10.0,SW,11.5,-,N/A,,Mostly Cloudy,230,2012-09-22 12:51:00
9:51 AM,64.0,55.0,73,29.92,10.0,SW,8.1,-,N/A,,Overcast,230,2012-09-22 13:51:00
10:27 AM,64.4,55.4,73,29.98,10.0,WSW,10.4,18.4,N/A,,Overcast,250,2012-09-22 14:27:00
10:51 AM,66.0,55.9,70,29.91,10.0,WSW,11.5,18.4,N/A,,Overcast,240,2012-09-22 14:51:00
11:46 AM,66.2,55.4,68,29.98,10.0,West,13.8,19.6,N/A,,Mostly Cloudy,270,2012-09-22 15:46:00
11:51 AM,68.0,55.9,65,29.91,10.0,West,12.7,19.6,N/A,,Mostly Cloudy,270,2012-09-22 15:51:00
12:51 PM,71.1,54.0,55,29.89,10.0,WSW,13.8,24.2,N/A,,Partly Cloudy,240,2012-09-22 16:51:00
1:51 PM,73.0,50.0,44,29.87,10.0,WSW,13.8,28.8,N/A,,Scattered Clouds,250,2012-09-22 17:51:00
2:51 PM,71.1,48.9,45,29.87,10.0,WSW,17.3,21.9,N/A,,Scattered Clouds,240,2012-09-22 18:51:00
3:51 PM,70.0,50.0,49,29.88,10.0,West,11.5,20.7,N/A,,Scattered Clouds,280,2012-09-22 19:51:00
4:51 PM,68.0,50.0,52,29.89,10.0,WNW,11.5,19.6,N/A,,Overcast,290,2012-09-22 20:51:00
5:51 PM,68.0,48.9,50,29.91,10.0,West,13.8,20.7,N/A,,Partly Cloudy,280,2012-09-22 21:51:00
6:51 PM,64.9,48.9,56,29.95,10.0,WNW,9.2,-,N/A,,Partly Cloudy,300,2012-09-22 22:51:00
7:51 PM,62.1,45.0,53,29.99,10.0,WNW,13.8,20.7,N/A,,Clear,290,2012-09-22 23:51:00
8:51 PM,59.0,42.1,53,30.02,10.0,WNW,9.2,-,N/A,,Clear,290,2012-09-23 00:51:00
9:51 PM,57.0,39.9,53,30.04,10.0,West,5.8,-,N/A,,Partly Cloudy,270,2012-09-23 01:51:00
10:51 PM,55.9,39.9,55,30.04,10.0,West,5.8,-,N/A,,Clear,280,2012-09-23 02:51:00
11:43 PM,53.6,39.2,58,30.12,10.0,North,13.8,-,N/A,,Clear,350,2012-09-23 03:43:00
11:51 PM,52.0,39.9,63,30.07,10.0,NNW,10.4,-,N/A,,Clear,340,2012-09-23 03:51:00